createdAt,value
2019-04-04T00:00:59.649Z,6.85
2019-04-04T00:03:29.239Z,7.30
2019-04-04T00:05:58.898Z,8.10
2019-04-04T00:08:30.767Z,6.90
2019-04-04T00:10:59.705Z,3.22
2019-04-04T00:13:29.378Z,4.42
2019-04-04T00:15:58.867Z,2.47
2019-04-04T00:18:28.630Z,5.25
2019-04-04T00:21:02.457Z,7.17
2019-04-04T00:23:30.554Z,3.62
2019-04-04T00:26:00.218Z,5.35
2019-04-04T00:28:29.727Z,3.80
2019-04-04T00:30:59.164Z,8.13
2019-04-04T00:33:28.717Z,10.13
2019-04-04T00:35:58.629Z,7.03
2019-04-04T00:38:28.379Z,8.05
2019-04-04T00:40:58.172Z,15.90
2019-04-04T00:43:28.198Z,15.10
2019-04-04T00:46:00.463Z,7.87
2019-04-04T00:48:30.015Z,10.28
2019-04-04T00:50:59.541Z,12.05
2019-04-04T00:53:30.688Z,9.30
2019-04-04T00:56:00.744Z,10.30
2019-04-04T00:58:30.553Z,8.23
2019-04-04T01:01:00.447Z,12.30
2019-04-04T01:03:30.746Z,12.78
2019-04-04T01:06:02.831Z,8.78
2019-04-04T01:08:31.934Z,5.60
2019-04-04T01:11:01.542Z,8.88
2019-04-04T01:13:31.302Z,7.20
2019-04-04T01:16:02.938Z,7.08
2019-04-04T01:18:32.470Z,8.45
2019-04-04T01:21:02.194Z,11.08
2019-04-04T01:23:32.043Z,8.60
2019-04-04T01:26:03.439Z,8.23
2019-04-04T01:28:33.196Z,10.23
2019-04-04T01:31:02.958Z,6.28
2019-04-04T01:33:32.824Z,7.70
2019-04-04T01:36:03.016Z,10.05
2019-04-04T01:38:32.559Z,12.68
2019-04-04T01:41:04.502Z,9.40
2019-04-04T01:43:33.653Z,13.28
2019-04-04T01:46:03.526Z,12.75
2019-04-04T01:48:33.120Z,17.50
2019-04-04T01:51:02.911Z,21.87
2019-04-04T01:53:32.644Z,31.10
2019-04-04T01:56:05.913Z,37.42
2019-04-04T01:58:34.108Z,36.00
2019-04-04T02:01:04.109Z,36.10
2019-04-04T02:03:33.774Z,32.20
2019-04-04T02:06:03.486Z,30.70
2019-04-04T02:08:33.420Z,29.85
2019-04-04T02:11:05.210Z,27.62
2019-04-04T02:13:34.333Z,33.92
2019-04-04T02:16:04.043Z,37.88
2019-04-04T02:18:34.160Z,35.25
2019-04-04T02:21:03.714Z,33.02
2019-04-04T02:23:33.784Z,31.05
2019-04-04T02:26:05.152Z,28.15
2019-04-04T02:28:35.245Z,27.40
2019-04-04T02:31:06.663Z,25.92
2019-04-04T02:33:36.603Z,31.37
2019-04-04T02:36:06.833Z,26.50
2019-04-04T02:38:36.598Z,27.58
2019-04-04T02:41:06.510Z,25.40
2019-04-04T02:43:36.259Z,28.57
2019-04-04T02:46:05.871Z,29.48
2019-04-04T02:48:35.825Z,23.77
2019-04-04T02:51:08.022Z,25.90
2019-04-04T02:53:37.025Z,26.48
2019-04-04T02:56:06.541Z,31.02
2019-04-04T02:58:36.413Z,28.10
2019-04-04T03:01:06.174Z,29.07
2019-04-04T03:03:36.221Z,29.25
2019-04-04T03:06:05.831Z,32.00
2019-04-04T03:08:37.679Z,31.10
2019-04-04T03:11:06.736Z,38.10
2019-04-04T03:13:36.759Z,44.70
2019-04-04T03:16:06.412Z,35.92
2019-04-04T03:18:37.227Z,34.60
2019-04-04T03:21:07.556Z,39.55
2019-04-04T03:23:37.567Z,36.63
2019-04-04T03:26:07.490Z,32.40
2019-04-04T03:28:37.348Z,31.93
2019-04-04T03:31:07.249Z,23.55
2019-04-04T03:33:36.854Z,35.83
2019-04-04T03:36:06.483Z,42.67
2019-04-04T03:38:35.932Z,47.43
2019-04-04T03:41:05.999Z,45.75
2019-04-04T03:43:35.806Z,48.65
2019-04-04T03:46:06.207Z,50.30
2019-04-04T03:48:35.960Z,49.10
2019-04-04T03:51:05.654Z,51.77
2019-04-04T03:53:35.847Z,48.08
2019-04-04T03:56:05.362Z,51.05
2019-04-04T03:58:35.319Z,47.40
2019-04-04T04:01:05.098Z,42.67
2019-04-04T04:03:34.531Z,40.85
2019-04-04T04:06:08.418Z,38.38
2019-04-04T04:08:35.979Z,38.05
2019-04-04T04:11:06.139Z,39.20
2019-04-04T04:13:35.984Z,42.27
2019-04-04T04:16:05.878Z,40.92
2019-04-04T04:18:35.684Z,42.15
2019-04-04T04:21:09.727Z,40.48
2019-04-04T04:23:36.654Z,40.38
2019-04-04T04:26:09.470Z,39.27
2019-04-04T04:28:38.046Z,40.88
2019-04-04T04:31:08.297Z,38.02
2019-04-04T04:33:37.927Z,38.20
2019-04-04T04:36:09.712Z,36.17
2019-04-04T04:38:39.031Z,37.60
2019-04-04T04:41:08.887Z,38.53
2019-04-04T04:43:38.766Z,34.15
2019-04-04T04:46:08.349Z,41.70
2019-04-04T04:48:38.057Z,34.48
2019-04-04T04:51:11.565Z,29.15
2019-04-04T04:53:39.041Z,29.92
2019-04-04T04:56:09.065Z,25.15
2019-04-04T04:58:41.711Z,26.10
2019-04-04T05:01:09.985Z,31.23
2019-04-04T05:03:39.815Z,27.40
2019-04-04T05:06:09.278Z,29.63
2019-04-04T05:08:39.010Z,27.02
2019-04-04T05:11:10.356Z,30.70
2019-04-04T05:13:40.151Z,31.68
2019-04-04T05:16:09.869Z,27.70
2019-04-04T05:18:39.963Z,26.73
2019-04-04T05:21:09.355Z,27.65
2019-04-04T05:23:39.049Z,27.00
2019-04-04T05:26:09.774Z,24.82
2019-04-04T05:28:41.734Z,30.88
2019-04-04T05:31:10.983Z,29.45
2019-04-04T05:33:40.849Z,25.05
2019-04-04T05:36:10.471Z,24.72
2019-04-04T05:38:42.641Z,28.80
2019-04-04T05:41:12.386Z,25.25
2019-04-04T05:43:42.412Z,25.45
2019-04-04T05:46:12.103Z,27.22
2019-04-04T05:48:41.686Z,28.27
2019-04-04T05:51:14.952Z,28.70
2019-04-04T05:53:43.359Z,28.05
2019-04-04T05:56:14.993Z,31.85
2019-04-04T05:58:44.625Z,30.25
2019-04-04T06:01:15.570Z,32.28
2019-04-04T06:03:47.817Z,30.48
2019-04-04T06:06:16.772Z,31.30
2019-04-04T06:08:46.758Z,27.82
2019-04-04T06:11:16.182Z,31.42
2019-04-04T06:13:46.091Z,31.10
2019-04-04T06:16:16.175Z,29.57
2019-04-04T06:18:48.918Z,29.95
2019-04-04T06:21:18.830Z,29.92
2019-04-04T06:23:49.031Z,27.37
2019-04-04T06:26:18.931Z,31.00
2019-04-04T06:28:48.494Z,24.37
2019-04-04T06:31:18.205Z,27.37
2019-04-04T06:33:48.171Z,29.77
2019-04-04T06:36:18.345Z,27.62
2019-04-04T06:38:49.797Z,28.67
2019-04-04T06:41:19.414Z,31.65
2019-04-04T06:43:49.250Z,24.50
2019-04-04T06:46:22.493Z,26.55
2019-04-04T06:48:50.856Z,28.87
2019-04-04T06:51:20.605Z,26.68
2019-04-04T06:53:53.333Z,28.30
2019-04-04T06:56:22.035Z,26.73
2019-04-04T06:58:51.646Z,25.92
2019-04-04T07:01:22.109Z,25.02
2019-04-04T07:03:53.111Z,27.82
2019-04-04T07:06:22.925Z,24.40
2019-04-04T07:08:52.781Z,25.05
2019-04-04T07:11:22.447Z,27.40
2019-04-04T07:13:52.160Z,30.90
2019-04-04T07:16:22.048Z,29.18
2019-04-04T07:18:51.527Z,27.42
2019-04-04T07:21:21.325Z,29.77
2019-04-04T07:23:50.718Z,28.20
2019-04-04T07:26:20.351Z,31.17
2019-04-04T07:28:53.763Z,27.62
2019-04-04T07:31:21.513Z,29.02
2019-04-04T07:33:51.221Z,26.80
2019-04-04T07:36:20.954Z,23.50
2019-04-04T07:38:50.579Z,24.37
2019-04-04T07:41:20.130Z,25.10
2019-04-04T07:43:51.613Z,30.17
2019-04-04T07:46:20.753Z,27.67
2019-04-04T07:48:51.565Z,28.35
2019-04-04T07:51:21.558Z,25.40
2019-04-04T07:53:51.135Z,27.45
2019-04-04T07:56:20.944Z,26.02
2019-04-04T07:58:50.597Z,23.80
2019-04-04T08:01:23.493Z,23.60
2019-04-04T08:03:52.867Z,25.65
2019-04-04T08:06:22.566Z,25.02
2019-04-04T08:08:52.147Z,25.68
2019-04-04T08:11:22.057Z,24.85
2019-04-04T08:13:51.695Z,26.27
2019-04-04T08:16:21.257Z,30.32
2019-04-04T08:18:50.851Z,24.72
2019-04-04T08:21:20.357Z,23.98
2019-04-04T08:23:50.635Z,24.37
2019-04-04T08:26:20.183Z,24.43
2019-04-04T08:28:49.919Z,28.98
2019-04-04T08:31:19.600Z,23.12
2019-04-04T08:33:49.369Z,23.00
2019-04-04T08:36:18.981Z,29.18
2019-04-04T08:38:48.619Z,27.10
2019-04-04T08:41:18.161Z,27.70
2019-04-04T08:43:47.569Z,32.20
2019-04-04T08:46:19.741Z,32.83
2019-04-04T08:48:48.706Z,26.17
2019-04-04T08:51:18.242Z,29.30
2019-04-04T08:53:48.196Z,29.80
2019-04-04T08:56:17.839Z,30.05
2019-04-04T08:58:47.650Z,31.62
2019-04-04T09:01:17.033Z,32.75
2019-04-04T09:03:49.735Z,31.15
2019-04-04T09:06:19.113Z,27.77
2019-04-04T09:08:48.971Z,30.48
2019-04-04T09:11:18.499Z,29.70
2019-04-04T09:13:48.113Z,29.12
2019-04-04T09:16:17.592Z,31.62
2019-04-04T09:18:47.008Z,32.93
2019-04-04T09:21:16.791Z,39.53
2019-04-04T09:23:46.479Z,39.10
2019-04-04T09:26:16.040Z,36.60
2019-04-04T09:28:45.547Z,31.48
2019-04-04T09:31:15.221Z,31.40
2019-04-04T09:33:44.658Z,28.95
2019-04-04T09:36:14.578Z,39.60
2019-04-04T09:38:43.951Z,30.45
2019-04-04T09:41:14.034Z,27.05
2019-04-04T09:43:43.435Z,31.33
2019-04-04T09:46:13.092Z,32.05
2019-04-04T09:48:42.661Z,31.17
2019-04-04T09:51:12.152Z,34.03
2019-04-04T09:53:52.832Z,26.68
2019-04-04T09:56:13.225Z,37.63
2019-04-04T09:58:42.749Z,33.35
2019-04-04T10:01:12.484Z,27.13
2019-04-04T10:03:41.987Z,24.72
2019-04-04T10:06:11.730Z,30.43
2019-04-04T10:08:41.750Z,30.57
2019-04-04T10:11:11.409Z,28.12
2019-04-04T10:13:41.004Z,28.25
2019-04-04T10:16:10.854Z,29.67
2019-04-04T10:18:40.381Z,27.15
2019-04-04T10:21:12.026Z,28.62
2019-04-04T10:23:40.940Z,29.48
2019-04-04T10:26:10.679Z,26.30
2019-04-04T10:28:40.365Z,28.85
2019-04-04T10:31:10.266Z,30.30
2019-04-04T10:33:42.185Z,28.95
2019-04-04T10:36:11.619Z,32.63
2019-04-04T10:38:41.222Z,31.65
2019-04-04T10:41:11.018Z,34.83
2019-04-04T10:43:40.479Z,28.98
2019-04-04T10:46:10.142Z,25.88
2019-04-04T10:48:40.070Z,24.72
2019-04-04T10:51:09.872Z,27.55
2019-04-04T10:53:39.551Z,29.02
2019-04-04T10:56:09.391Z,29.82
2019-04-04T10:58:38.852Z,30.25
2019-04-04T11:01:08.682Z,27.17
2019-04-04T11:03:38.253Z,26.77
2019-04-04T11:06:07.928Z,31.00
2019-04-04T11:08:37.538Z,33.02
2019-04-04T11:11:07.008Z,32.38
2019-04-04T11:13:36.719Z,29.35
2019-04-04T11:16:06.139Z,39.40
2019-04-04T11:18:35.586Z,35.03
2019-04-04T11:21:05.382Z,40.50
2019-04-04T11:23:35.106Z,36.98
2019-04-04T11:26:04.858Z,44.48
2019-04-04T11:28:34.928Z,38.05
2019-04-04T11:31:05.402Z,38.67
2019-04-04T11:33:34.802Z,41.65
2019-04-04T11:36:04.425Z,39.67
2019-04-04T11:38:34.033Z,44.03
2019-04-04T11:41:03.584Z,35.40
2019-04-04T11:43:33.192Z,38.30
2019-04-04T11:46:02.863Z,40.28
2019-04-04T11:48:35.401Z,34.88
2019-04-04T11:51:05.028Z,41.68
2019-04-04T11:53:34.539Z,33.48
2019-04-04T11:56:04.101Z,36.25
2019-04-04T11:58:33.491Z,34.53
2019-04-04T12:01:06.137Z,38.35
2019-04-04T12:03:35.904Z,36.13
2019-04-04T12:06:05.928Z,37.95
2019-04-04T12:08:35.631Z,37.00
2019-04-04T12:11:05.378Z,33.28
2019-04-04T12:13:35.162Z,42.35
2019-04-04T12:16:05.011Z,28.23
2019-04-04T12:18:34.407Z,36.40
2019-04-04T12:21:04.403Z,31.73
2019-04-04T12:23:33.951Z,28.98
2019-04-04T12:26:03.598Z,29.67
2019-04-04T12:28:33.085Z,30.82
2019-04-04T12:31:02.790Z,34.98
2019-04-04T12:33:32.514Z,33.83
2019-04-04T12:36:02.688Z,32.23
2019-04-04T12:38:32.080Z,35.75
2019-04-04T12:41:02.380Z,33.25
2019-04-04T12:43:32.409Z,35.98
2019-04-04T12:46:02.311Z,34.23
2019-04-04T12:48:32.308Z,40.52
2019-04-04T12:51:02.062Z,36.58
2019-04-04T12:53:32.852Z,44.03
2019-04-04T12:56:02.512Z,42.30
2019-04-04T12:58:32.414Z,42.23
2019-04-04T13:01:01.896Z,34.43
2019-04-04T13:03:32.206Z,37.90
2019-04-04T13:06:01.913Z,40.58
2019-04-04T13:08:31.488Z,35.25
2019-04-04T13:11:01.396Z,35.55
2019-04-04T13:13:30.802Z,31.42
2019-04-04T13:16:01.482Z,31.82
2019-04-04T13:18:31.259Z,33.90
2019-04-04T13:21:01.083Z,30.37
2019-04-04T13:23:38.599Z,32.88
2019-04-04T13:26:08.412Z,34.58
2019-04-04T13:28:38.029Z,28.95
2019-04-04T13:31:15.843Z,32.35
2019-04-04T13:33:45.352Z,31.30
2019-04-04T13:36:14.843Z,35.78
2019-04-04T13:38:44.659Z,29.65
2019-04-04T13:41:21.693Z,32.83
2019-04-04T13:43:46.052Z,29.23
2019-04-04T13:46:15.880Z,34.08
2019-04-04T13:48:45.487Z,35.25
2019-04-04T13:51:15.406Z,30.75
2019-04-04T13:53:44.908Z,33.98
2019-04-04T13:56:14.580Z,36.38
2019-04-04T13:58:44.136Z,35.65
2019-04-04T14:01:13.978Z,38.53
2019-04-04T14:03:43.547Z,34.92
2019-04-04T14:06:13.096Z,34.78
2019-04-04T14:08:45.533Z,35.60
2019-04-04T14:11:13.832Z,39.30
2019-04-04T14:13:43.709Z,41.73
2019-04-04T14:16:13.360Z,34.90
2019-04-04T14:18:44.729Z,41.77
2019-04-04T14:21:14.683Z,39.03
2019-04-04T14:23:45.366Z,40.17
2019-04-04T14:26:15.266Z,41.33
2019-04-04T14:28:45.052Z,38.05
2019-04-04T14:31:14.517Z,37.20
2019-04-04T14:33:44.036Z,41.00
2019-04-04T14:36:13.597Z,38.80
2019-04-04T14:38:43.447Z,36.68
2019-04-04T14:41:13.123Z,30.62
2019-04-04T14:43:42.695Z,28.67
2019-04-04T14:46:12.086Z,36.05
2019-04-04T14:48:43.172Z,34.00
2019-04-04T14:51:13.223Z,28.47
2019-04-04T14:53:42.801Z,33.45
2019-04-04T14:56:12.556Z,32.58
2019-04-04T14:58:42.216Z,34.58
2019-04-04T15:01:12.016Z,35.15
2019-04-04T15:03:42.343Z,31.10
2019-04-04T15:06:12.344Z,30.27
2019-04-04T15:08:41.890Z,21.65
2019-04-04T15:11:23.400Z,22.00
2019-04-04T15:13:42.936Z,29.30
2019-04-04T15:16:16.420Z,27.52
2019-04-04T15:18:46.013Z,27.98
2019-04-04T15:21:15.751Z,38.38
2019-04-04T15:23:45.279Z,38.58
2019-04-04T15:26:15.211Z,53.92
2019-04-04T15:28:45.090Z,49.48
2019-04-04T15:31:14.800Z,47.55
2019-04-04T15:33:44.889Z,44.23
2019-04-04T15:36:14.981Z,45.90
2019-04-04T15:38:44.777Z,73.02
2019-04-04T15:41:14.669Z,52.78
2019-04-04T15:43:44.433Z,40.10
2019-04-04T15:46:14.008Z,34.80
2019-04-04T15:48:43.635Z,23.83
2019-04-04T15:51:13.384Z,29.00
2019-04-04T15:53:43.004Z,27.22
2019-04-04T15:56:12.662Z,29.75
2019-04-04T15:58:42.299Z,31.00
2019-04-04T16:01:11.896Z,24.27
2019-04-04T16:03:41.403Z,24.72
2019-04-04T16:06:10.829Z,26.60
2019-04-04T16:08:40.616Z,27.65
2019-04-04T16:11:10.429Z,22.17
2019-04-04T16:13:40.113Z,28.52
2019-04-04T16:16:09.645Z,22.60
2019-04-04T16:18:39.456Z,21.05
2019-04-04T16:21:08.908Z,18.48
2019-04-04T16:23:38.689Z,24.70
2019-04-04T16:26:08.172Z,26.20
2019-04-04T16:28:37.853Z,18.70
2019-04-04T16:31:07.527Z,22.62
2019-04-04T16:33:37.137Z,17.30
2019-04-04T16:36:06.943Z,14.50
2019-04-04T16:38:36.789Z,15.85
2019-04-04T16:41:06.398Z,15.60
2019-04-04T16:43:36.072Z,18.25
2019-04-04T16:46:05.475Z,11.97
2019-04-04T16:48:35.321Z,14.18
2019-04-04T16:51:05.147Z,14.43
2019-04-04T16:53:35.354Z,18.00
2019-04-04T16:56:05.133Z,14.98
2019-04-04T16:58:37.052Z,14.13
2019-04-04T17:01:07.097Z,18.57
2019-04-04T17:03:36.978Z,14.33
2019-04-04T17:06:06.573Z,17.40
2019-04-04T17:08:36.691Z,14.35
2019-04-04T17:11:06.824Z,14.63
2019-04-04T17:13:36.971Z,14.03
2019-04-04T17:16:06.549Z,11.95
2019-04-04T17:18:36.307Z,14.30
2019-04-04T17:21:05.801Z,13.93
2019-04-04T17:23:35.636Z,23.52
2019-04-04T17:26:05.159Z,21.48
2019-04-04T17:28:35.332Z,22.62
2019-04-04T17:31:07.013Z,23.10
2019-04-04T17:33:36.097Z,21.10
2019-04-04T17:36:05.881Z,25.55
2019-04-04T17:38:35.850Z,25.68
2019-04-04T17:41:05.994Z,22.65
2019-04-04T17:43:35.870Z,26.50
2019-04-04T17:46:05.895Z,28.70
2019-04-04T17:48:35.844Z,24.98
2019-04-04T17:51:05.478Z,24.07
2019-04-04T17:53:35.471Z,33.75
2019-04-04T17:56:05.781Z,22.75
2019-04-04T17:58:35.781Z,28.35
2019-04-04T18:01:07.158Z,27.62
2019-04-04T18:03:36.970Z,26.48
2019-04-04T18:06:06.933Z,25.68
2019-04-04T18:08:36.627Z,19.55
2019-04-04T18:11:06.557Z,28.77
2019-04-04T18:13:36.143Z,24.72
2019-04-04T18:16:05.771Z,21.87
2019-04-04T18:18:35.394Z,18.85
2019-04-04T18:21:04.823Z,15.95
2019-04-04T18:23:34.898Z,14.18
2019-04-04T18:26:04.350Z,17.07
2019-04-04T18:28:34.353Z,15.03
2019-04-04T18:31:04.207Z,10.95
2019-04-04T18:33:33.862Z,11.05
2019-04-04T18:36:03.649Z,8.40
2019-04-04T18:38:33.377Z,8.65
2019-04-04T18:41:03.373Z,14.10
2019-04-04T18:43:33.136Z,12.53
2019-04-04T18:46:02.746Z,11.38
2019-04-04T18:48:32.539Z,12.55
2019-04-04T18:51:01.989Z,13.10
2019-04-04T18:53:31.554Z,15.23
2019-04-04T18:56:01.056Z,11.18
2019-04-04T18:58:30.623Z,12.07
2019-04-04T19:01:00.268Z,13.68
2019-04-04T19:03:31.345Z,11.33
2019-04-04T19:06:01.532Z,13.28
2019-04-04T19:08:31.220Z,14.13
2019-04-04T19:11:01.122Z,16.10
2019-04-04T19:13:34.135Z,14.87
2019-04-04T19:16:02.249Z,16.15
2019-04-04T19:18:31.982Z,36.33
2019-04-04T19:21:01.563Z,14.53
2019-04-04T19:23:50.112Z,21.70
2019-04-04T19:26:20.426Z,22.35
2019-04-04T19:28:49.822Z,19.42
2019-04-04T19:31:19.681Z,16.30
2019-04-04T19:33:49.530Z,9.90
2019-04-04T19:36:19.317Z,5.62
2019-04-04T19:38:48.769Z,5.62
2019-04-04T19:41:18.600Z,10.35
2019-04-04T19:43:48.494Z,16.20
2019-04-04T19:46:17.933Z,22.13
2019-04-04T19:48:48.465Z,25.43
2019-04-04T19:51:18.543Z,20.97
2019-04-04T19:53:48.523Z,18.15
2019-04-04T19:56:18.143Z,24.37
2019-04-04T19:58:48.005Z,19.87
2019-04-04T20:01:17.669Z,13.48
2019-04-04T20:03:47.481Z,13.48
2019-04-04T20:06:17.082Z,15.95
2019-04-04T20:08:49.852Z,15.10
2019-04-04T20:11:18.463Z,15.35
2019-04-04T20:13:48.168Z,15.80
2019-04-04T20:16:18.093Z,13.03
2019-04-04T20:18:47.675Z,11.38
2019-04-04T20:21:17.426Z,10.28
2019-04-04T20:23:47.295Z,9.50
2019-04-04T20:26:17.008Z,13.08
2019-04-04T20:28:46.564Z,17.77
2019-04-04T20:31:16.181Z,14.87
2019-04-04T20:33:45.994Z,13.32
2019-04-04T20:36:15.810Z,16.35
2019-04-04T20:38:45.495Z,15.58
2019-04-04T20:41:16.597Z,23.10
2019-04-04T20:43:46.335Z,33.30
2019-04-04T20:46:15.910Z,37.08
2019-04-04T20:48:45.797Z,41.02
2019-04-04T20:51:15.753Z,40.05
2019-04-04T20:53:45.729Z,41.50
2019-04-04T20:56:15.552Z,31.77
2019-04-04T20:58:45.301Z,34.55
2019-04-04T21:01:15.284Z,36.65
2019-04-04T21:03:45.386Z,36.73
2019-04-04T21:06:15.533Z,38.58
2019-04-04T21:08:45.084Z,33.83
2019-04-04T21:11:15.132Z,35.08
2019-04-04T21:13:55.428Z,29.67
2019-04-04T21:16:15.637Z,28.62
2019-04-04T21:18:45.576Z,23.87
2019-04-04T21:21:15.380Z,21.35
2019-04-04T21:23:45.037Z,12.28
2019-04-04T21:26:15.040Z,9.18
2019-04-04T21:28:45.082Z,10.23
2019-04-04T21:31:14.980Z,7.50
2019-04-04T21:33:44.795Z,7.40
2019-04-04T21:36:14.379Z,7.03
2019-04-04T21:38:44.290Z,6.62
2019-04-04T21:41:14.082Z,7.20
2019-04-04T21:43:43.912Z,6.45
2019-04-04T21:46:13.874Z,5.47
2019-04-04T21:48:43.815Z,6.67
2019-04-04T21:51:13.427Z,5.50
2019-04-04T21:53:43.156Z,8.73
2019-04-04T21:56:12.774Z,8.75
2019-04-04T21:58:42.379Z,10.48
2019-04-04T22:01:12.454Z,20.27
2019-04-04T22:03:42.514Z,9.45
2019-04-04T22:06:12.451Z,8.00
2019-04-04T22:08:42.348Z,21.68
2019-04-04T22:11:12.031Z,25.20
2019-04-04T22:13:41.522Z,12.58
2019-04-04T22:16:11.312Z,15.30
2019-04-04T22:18:41.125Z,12.63
2019-04-04T22:21:11.029Z,12.58
2019-04-04T22:23:41.050Z,17.23
2019-04-04T22:26:11.076Z,22.75
2019-04-04T22:28:41.299Z,22.15
2019-04-04T22:31:11.420Z,20.08
2019-04-04T22:33:41.275Z,21.48
2019-04-04T22:36:11.074Z,22.20
2019-04-04T22:38:40.815Z,24.27
2019-04-04T22:41:10.589Z,27.98
2019-04-04T22:43:40.411Z,19.27
2019-04-04T22:46:10.610Z,21.00
2019-04-04T22:48:40.322Z,20.57
2019-04-04T22:51:10.154Z,18.95
2019-04-04T22:53:39.887Z,17.80
2019-04-04T22:56:09.708Z,22.00
2019-04-04T22:58:39.558Z,42.23
2019-04-04T23:01:09.675Z,16.45
2019-04-04T23:03:39.679Z,16.75
2019-04-04T23:06:09.760Z,15.80
2019-04-04T23:08:39.691Z,16.80
2019-04-04T23:11:10.132Z,15.72
2019-04-04T23:13:40.246Z,16.77
2019-04-04T23:16:10.376Z,61.13
2019-04-04T23:18:40.478Z,18.25
2019-04-04T23:21:10.999Z,15.72
2019-04-04T23:23:41.160Z,21.25
2019-04-04T23:26:11.223Z,31.68
2019-04-04T23:28:41.380Z,18.55
2019-04-04T23:31:11.594Z,19.27
2019-04-04T23:33:41.562Z,15.08
2019-04-04T23:36:11.408Z,15.63
2019-04-04T23:38:41.382Z,14.10
2019-04-04T23:41:11.325Z,15.05
2019-04-04T23:43:41.588Z,15.72
2019-04-04T23:46:11.714Z,17.87
2019-04-04T23:48:41.877Z,18.35
2019-04-04T23:51:12.110Z,18.15
2019-04-04T23:53:42.230Z,20.57
2019-04-04T23:56:12.166Z,18.98
2019-04-04T23:58:42.312Z,22.82
